createdAt,value
2022-09-11T00:04:53.038Z,15.60
2022-09-11T00:10:01.823Z,15.60
2022-09-11T00:15:16.532Z,15.60
2022-09-11T00:20:43.251Z,15.50
2022-09-11T00:25:51.884Z,15.40
2022-09-11T00:31:22.046Z,15.40
2022-09-11T00:36:31.696Z,15.30
2022-09-11T00:41:45.672Z,15.30
2022-09-11T00:47:14.812Z,15.30
2022-09-11T00:52:44.043Z,15.20
2022-09-11T00:58:00.124Z,15.10
2022-09-11T01:03:13.097Z,15.00
2022-09-11T01:08:23.413Z,14.90
2022-09-11T01:19:40.052Z,14.90
2022-09-11T01:25:21.320Z,14.90
2022-09-11T01:30:40.834Z,14.80
2022-09-11T01:36:13.721Z,14.90
2022-09-11T01:41:29.971Z,14.90
2022-09-11T01:47:56.005Z,14.90
2022-09-11T01:53:08.705Z,14.90
2022-09-11T01:58:29.855Z,14.80
2022-09-11T02:03:41.834Z,14.90
2022-09-11T02:08:56.740Z,14.90
2022-09-11T02:14:34.131Z,15.00
2022-09-11T02:19:42.465Z,15.00
2022-09-11T02:24:50.124Z,15.20
2022-09-11T02:29:56.383Z,15.30
2022-09-11T02:35:09.240Z,15.40
2022-09-11T02:40:30.329Z,15.40
2022-09-11T02:46:07.987Z,15.50
2022-09-11T02:51:26.182Z,15.60
2022-09-11T02:56:38.213Z,15.60
2022-09-11T03:02:18.844Z,15.60
2022-09-11T03:07:30.389Z,15.70
2022-09-11T03:12:36.668Z,15.70
2022-09-11T03:17:51.622Z,15.70
2022-09-11T03:22:57.058Z,15.70
2022-09-11T03:28:01.222Z,15.70
2022-09-11T03:33:15.464Z,15.70
2022-09-11T03:38:26.524Z,15.70
2022-09-11T03:44:09.873Z,15.70
2022-09-11T03:49:49.088Z,15.60
2022-09-11T03:54:55.030Z,15.60
2022-09-11T04:00:04.392Z,15.60
2022-09-11T04:05:29.890Z,15.60
2022-09-11T04:10:47.516Z,15.50
2022-09-11T04:16:19.135Z,15.50
2022-09-11T04:21:32.829Z,15.50
2022-09-11T04:32:27.785Z,15.40
2022-09-11T04:37:50.949Z,15.30
2022-09-11T04:43:01.361Z,15.30
2022-09-11T04:48:08.185Z,15.20
2022-09-11T04:53:15.962Z,15.20
2022-09-11T04:58:24.130Z,15.10
2022-09-11T05:03:37.703Z,15.10
2022-09-11T05:08:55.276Z,15.00
2022-09-11T05:14:08.620Z,15.00
2022-09-11T05:19:47.555Z,15.00
2022-09-11T05:25:05.474Z,14.90
2022-09-11T05:30:29.379Z,14.90
2022-09-11T05:57:41.280Z,15.00
2022-09-11T06:03:17.392Z,15.30
2022-09-11T06:08:49.367Z,15.40
2022-09-11T06:14:10.029Z,15.50
2022-09-11T06:19:24.712Z,15.60
2022-09-11T06:24:43.864Z,15.70
2022-09-11T06:30:14.948Z,15.80
2022-09-11T06:35:35.820Z,15.90
2022-09-11T06:41:18.000Z,16.00
2022-09-11T06:46:50.344Z,16.10
2022-09-11T06:51:56.001Z,16.10
2022-09-11T06:56:58.399Z,16.20
2022-09-11T07:02:03.297Z,16.30
2022-09-11T07:07:14.713Z,16.40
2022-09-11T07:12:24.994Z,16.60
2022-09-11T07:18:00.694Z,16.70
2022-09-11T07:23:04.830Z,16.90
2022-09-11T07:28:10.995Z,17.00
2022-09-11T07:38:55.179Z,17.30
2022-09-11T07:44:25.508Z,17.50
2022-09-11T07:50:04.816Z,17.50
2022-09-11T07:55:44.685Z,17.60
2022-09-11T08:01:00.661Z,17.80
2022-09-11T08:06:22.497Z,17.90
2022-09-11T08:11:37.595Z,18.20
2022-09-11T08:16:48.480Z,18.30
2022-09-11T08:27:25.584Z,18.40
2022-09-11T08:32:47.494Z,18.60
2022-09-11T08:38:05.287Z,18.90
2022-09-11T08:43:47.185Z,19.00
2022-09-11T08:49:07.766Z,19.10
2022-09-11T08:54:56.300Z,19.20
2022-09-11T09:00:26.632Z,19.30
2022-09-11T09:06:21.722Z,19.50
2022-09-11T09:12:01.946Z,19.60
2022-09-11T09:17:24.561Z,19.80
2022-09-11T09:23:21.266Z,19.90
2022-09-11T09:28:47.426Z,20.10
2022-09-11T09:40:20.124Z,20.20
2022-09-11T09:46:06.794Z,20.50
2022-09-11T09:52:04.220Z,20.80
2022-09-11T09:57:34.386Z,20.90
2022-09-11T10:03:05.551Z,20.90
2022-09-11T10:09:03.258Z,20.90
2022-09-11T10:14:52.380Z,20.80
2022-09-11T10:20:29.650Z,20.70
2022-09-11T10:25:50.361Z,20.50
2022-09-11T10:31:27.841Z,20.30
2022-09-11T10:36:35.404Z,20.60
2022-09-11T10:42:21.954Z,20.60
2022-09-11T10:47:32.123Z,20.70
2022-09-11T10:52:57.373Z,21.10
2022-09-11T10:58:13.952Z,21.40
2022-09-11T11:03:23.754Z,21.70
2022-09-11T11:08:47.079Z,22.10
2022-09-11T11:13:56.252Z,22.30
2022-09-11T11:19:30.253Z,22.60
2022-09-11T11:25:02.349Z,23.00
2022-09-11T11:30:20.940Z,23.40
2022-09-11T11:35:54.548Z,23.30
2022-09-11T11:41:21.649Z,23.20
2022-09-11T11:46:42.323Z,23.10
2022-09-11T11:52:21.843Z,23.20
2022-09-11T11:57:35.205Z,22.90
2022-09-11T12:03:26.402Z,22.60
2022-09-11T12:09:17.166Z,22.80
2022-09-11T12:14:36.605Z,22.80
2022-09-11T12:20:23.881Z,23.20
2022-09-11T12:25:30.741Z,23.20
2022-09-11T12:31:10.038Z,23.40
2022-09-11T12:36:52.968Z,23.70
2022-09-11T12:42:33.876Z,23.60
2022-09-11T12:48:06.339Z,23.20
2022-09-11T12:53:25.137Z,23.70
2022-09-11T12:58:46.243Z,23.70
2022-09-11T13:04:34.718Z,23.60
2022-09-11T13:10:24.481Z,23.90
2022-09-11T13:16:17.438Z,24.60
2022-09-11T13:21:26.750Z,24.10
2022-09-11T13:26:35.377Z,24.30
2022-09-11T13:31:39.155Z,24.50
2022-09-11T13:36:45.515Z,24.10
2022-09-11T13:41:50.893Z,23.90
2022-09-11T13:46:57.725Z,24.00
2022-09-11T13:52:07.788Z,24.10
2022-09-11T13:57:15.685Z,24.30
2022-09-11T14:02:37.710Z,24.00
2022-09-11T14:08:24.623Z,23.80
2022-09-11T14:14:12.474Z,23.80
2022-09-11T14:19:29.782Z,23.80
2022-09-11T14:25:07.427Z,23.80
2022-09-11T14:30:33.551Z,23.90
2022-09-11T14:41:48.151Z,24.10
2022-09-11T14:52:58.487Z,23.90
2022-09-11T14:58:21.181Z,23.80
2022-09-11T15:03:25.501Z,23.70
2022-09-11T15:08:27.892Z,23.80
2022-09-11T15:13:34.063Z,23.80
2022-09-11T15:18:42.044Z,23.80
2022-09-11T15:23:45.342Z,23.90
2022-09-11T15:28:55.806Z,23.70
2022-09-11T15:34:12.403Z,23.80
2022-09-11T15:40:15.979Z,23.70
2022-09-11T15:45:40.489Z,23.70
2022-09-11T15:51:13.416Z,23.90
2022-09-11T15:56:23.852Z,24.00
2022-09-11T16:01:37.739Z,23.80
2022-09-11T16:06:56.863Z,23.80
2022-09-11T16:12:01.959Z,23.70
2022-09-11T16:17:05.790Z,23.80
2022-09-11T16:22:08.858Z,23.80
2022-09-11T16:27:11.139Z,23.70
2022-09-11T16:32:13.300Z,23.80
2022-09-11T16:37:15.435Z,24.10
2022-09-11T16:42:21.199Z,24.10
2022-09-11T16:47:24.026Z,24.00
2022-09-11T16:52:26.318Z,24.00
2022-09-11T16:57:28.583Z,23.80
2022-09-11T17:02:30.766Z,23.70
2022-09-11T17:07:32.961Z,23.50
2022-09-11T17:12:35.266Z,23.60
2022-09-11T17:17:38.084Z,23.80
2022-09-11T17:22:40.422Z,23.60
2022-09-11T17:27:42.643Z,23.50
2022-09-11T17:32:45.540Z,23.80
2022-09-11T17:37:47.725Z,25.70
2022-09-11T17:42:49.874Z,26.80
2022-09-11T17:47:52.729Z,26.70
2022-09-11T17:52:54.838Z,26.00
2022-09-11T17:57:56.933Z,25.10
2022-09-11T18:02:59.144Z,24.10
2022-09-11T18:08:02.296Z,23.60
2022-09-11T18:13:04.447Z,23.10
2022-09-11T18:18:06.601Z,22.80
2022-09-11T18:23:09.765Z,22.60
2022-09-11T18:28:12.469Z,22.40
2022-09-11T18:33:18.740Z,22.20
2022-09-11T18:38:21.185Z,22.00
2022-09-11T18:43:23.313Z,21.80
2022-09-11T18:48:25.411Z,21.60
2022-09-11T18:53:27.555Z,21.50
2022-09-11T18:58:31.150Z,21.30
2022-09-11T19:03:33.623Z,21.20
2022-09-11T19:08:39.693Z,21.10
2022-09-11T19:13:43.105Z,21.00
2022-09-11T19:18:45.537Z,20.90
2022-09-11T19:23:49.680Z,20.80
2022-09-11T19:28:52.407Z,20.80
2022-09-11T19:33:56.900Z,20.70
2022-09-11T19:39:01.358Z,20.60
2022-09-11T19:44:05.702Z,20.50
2022-09-11T19:49:09.335Z,20.40
2022-09-11T19:54:13.021Z,20.30
2022-09-11T19:59:15.403Z,20.20
2022-09-11T20:04:19.212Z,20.10
2022-09-11T20:09:37.012Z,20.00
2022-09-11T20:14:42.409Z,20.00
2022-09-11T20:19:45.118Z,19.90
2022-09-11T20:24:51.494Z,19.90
2022-09-11T20:30:00.644Z,19.90
2022-09-11T20:35:05.568Z,19.80
2022-09-11T20:40:08.789Z,19.80
2022-09-11T20:45:11.756Z,19.70
2022-09-11T20:50:14.264Z,19.70
2022-09-11T20:55:16.664Z,19.60
2022-09-11T21:00:18.903Z,19.40
2022-09-11T21:05:20.995Z,19.30
2022-09-11T21:10:23.091Z,19.10
2022-09-11T21:15:25.214Z,19.00
2022-09-11T21:20:27.328Z,19.00
2022-09-11T21:25:29.466Z,19.00
2022-09-11T21:30:31.615Z,18.90
2022-09-11T21:35:33.795Z,18.90
2022-09-11T21:40:36.003Z,18.80
2022-09-11T21:45:38.101Z,18.80
2022-09-11T21:50:40.608Z,18.70
2022-09-11T21:55:44.941Z,18.70
2022-09-11T22:00:48.641Z,18.60
2022-09-11T22:05:51.307Z,18.60
2022-09-11T22:10:53.501Z,18.50
2022-09-11T22:15:55.829Z,18.50
2022-09-11T22:21:01.281Z,18.50
2022-09-11T22:26:13.560Z,18.40
2022-09-11T22:31:19.490Z,18.40
2022-09-11T22:36:24.877Z,18.30
2022-09-11T22:41:27.394Z,18.30
2022-09-11T22:46:29.901Z,18.30
2022-09-11T22:51:32.836Z,18.30
2022-09-11T22:56:37.106Z,18.20
2022-09-11T23:01:40.505Z,18.20
2022-09-11T23:07:01.417Z,18.10
2022-09-11T23:12:03.809Z,18.10
2022-09-11T23:17:06.047Z,18.10
2022-09-11T23:22:08.182Z,18.00
2022-09-11T23:27:10.431Z,18.00
2022-09-11T23:32:12.660Z,18.00
2022-09-11T23:37:15.064Z,17.90
2022-09-11T23:42:17.321Z,17.90
2022-09-11T23:47:19.508Z,17.90
2022-09-11T23:52:21.671Z,17.90
2022-09-11T23:57:24.048Z,17.90
